SBI5347 UNOO-UNNT
Flight info
| Callsign | SBI5347 |
|---|---|
| Flight time | N/A |
| Altitude | 33000 |
| Route | RUMOD5D RUMOD A844 BIKMI R234 ABESA B944 GOLIM GOLIM1K |
| Aircraft | E170/M-SDE3GILORVW/S |
Departure
| Time | 2026-04-25 14:52 |
|---|---|
| Airport | Omsk Central Airport (UNOO) |
Arrival
| Time | N/A |
|---|---|
| Airport | Novosibirsk Tolmachevo Airport (UNNT) |
| Time | Latitude | Longitude | Altitude | Speed | Heading |
|---|---|---|---|---|---|
| 2026-04-25 14:27 | 54.96305 | 73.31947 | 295 ft | 0 kts | 137° |
| 2026-04-25 14:46 | 54.96305 | 73.31948 | 295 ft | 0 kts | 137° |
| 2026-04-25 14:46 | 54.96295 | 73.31963 | 297 ft | 4 kts | 137° |
| 2026-04-25 14:46 | 54.96269 | 73.32011 | 297 ft | 7 kts | 121° |
| 2026-04-25 14:46 | 54.96285 | 73.32108 | 297 ft | 11 kts | 35° |
| 2026-04-25 14:47 | 54.96361 | 73.32206 | 299 ft | 16 kts | 37° |
| 2026-04-25 14:47 | 54.96429 | 73.32236 | 298 ft | 14 kts | 8° |
| 2026-04-25 14:47 | 54.96482 | 73.32376 | 297 ft | 10 kts | 77° |
| 2026-04-25 14:47 | 54.96501 | 73.32514 | 296 ft | 13 kts | 77° |
| 2026-04-25 14:48 | 54.96523 | 73.32688 | 298 ft | 16 kts | 77° |
| 2026-04-25 14:48 | 54.96549 | 73.32887 | 300 ft | 15 kts | 78° |
| 2026-04-25 14:48 | 54.96561 | 73.32978 | 299 ft | 0 kts | 74° |
| 2026-04-25 14:48 | 54.96565 | 73.32999 | 297 ft | 0 kts | 66° |
| 2026-04-25 14:49 | 54.96566 | 73.33001 | 297 ft | 2 kts | 67° |
| 2026-04-25 14:49 | 54.96584 | 73.33038 | 295 ft | 6 kts | 44° |
| 2026-04-25 14:49 | 54.96642 | 73.33039 | 295 ft | 12 kts | 346° |
| 2026-04-25 14:49 | 54.96743 | 73.32998 | 295 ft | 17 kts | 347° |
| 2026-04-25 14:50 | 54.96843 | 73.32961 | 297 ft | 16 kts | 345° |
| 2026-04-25 14:50 | 54.96942 | 73.32913 | 296 ft | 13 kts | 331° |
| 2026-04-25 14:50 | 54.96957 | 73.32846 | 299 ft | 0 kts | 257° |
| 2026-04-25 14:51 | 54.96950 | 73.32795 | 304 ft | 22 kts | 257° |
| 2026-04-25 14:51 | 54.96848 | 73.32010 | 306 ft | 108 kts | 258° |
| 2026-04-25 14:51 | 54.96628 | 73.30342 | 451 ft | 164 kts | 256° |
| 2026-04-25 14:52 | 54.96388 | 73.28351 | 1430 ft | 173 kts | 259° |
| 2026-04-25 14:52 | 54.96213 | 73.26144 | 2062 ft | 194 kts | 258° |
| 2026-04-25 14:52 | 54.95984 | 73.23813 | 3125 ft | 197 kts | 256° |
| 2026-04-25 14:52 | 54.95796 | 73.22206 | 3599 ft | 213 kts | 254° |
| 2026-04-25 14:53 | 54.95302 | 73.18582 | 4610 ft | 235 kts | 251° |
| 2026-04-25 14:53 | 54.94912 | 73.15814 | 5751 ft | 236 kts | 251° |
| 2026-04-25 14:53 | 54.94526 | 73.13021 | 6771 ft | 240 kts | 251° |
| 2026-04-25 14:53 | 54.94136 | 73.10175 | 7685 ft | 244 kts | 251° |
| 2026-04-25 14:54 | 54.93742 | 73.07283 | 8588 ft | 247 kts | 251° |
| 2026-04-25 14:54 | 54.93434 | 73.04307 | 9335 ft | 261 kts | 262° |
| 2026-04-25 14:54 | 54.93932 | 73.01089 | 9920 ft | 289 kts | 298° |
| 2026-04-25 14:54 | 54.95419 | 72.98577 | 10487 ft | 321 kts | 324° |
| 2026-04-25 14:55 | 54.97684 | 72.97710 | 11016 ft | 347 kts | 5° |
| 2026-04-25 14:55 | 54.99967 | 72.98945 | 11934 ft | 352 kts | 25° |
| 2026-04-25 14:55 | 55.02073 | 73.01217 | 12800 ft | 357 kts | 35° |
| 2026-04-25 14:55 | 55.04072 | 73.03752 | 13740 ft | 362 kts | 39° |
| 2026-04-25 14:56 | 55.05709 | 73.07080 | 14468 ft | 364 kts | 62° |
| 2026-04-25 14:56 | 55.06766 | 73.11115 | 15306 ft | 366 kts | 73° |
| 2026-04-25 14:56 | 55.07595 | 73.15361 | 16098 ft | 371 kts | 74° |
| 2026-04-25 14:56 | 55.08453 | 73.19653 | 16902 ft | 377 kts | 72° |
| 2026-04-25 14:57 | 55.09376 | 73.23978 | 17702 ft | 382 kts | 71° |
| 2026-04-25 14:57 | 55.10358 | 73.28330 | 18448 ft | 387 kts | 70° |
| 2026-04-25 14:57 | 55.11360 | 73.32713 | 19139 ft | 392 kts | 70° |
| 2026-04-25 14:57 | 55.12374 | 73.37161 | 19816 ft | 397 kts | 70° |
| 2026-04-25 14:58 | 55.13385 | 73.41611 | 20461 ft | 401 kts | 70° |
| 2026-04-25 14:58 | 55.14460 | 73.46207 | 21062 ft | 407 kts | 65° |
| 2026-04-25 14:58 | 55.15946 | 73.50452 | 21720 ft | 410 kts | 55° |
| 2026-04-25 14:58 | 55.17729 | 73.54358 | 22296 ft | 415 kts | 50° |
| 2026-04-25 14:59 | 55.19525 | 73.58378 | 22891 ft | 419 kts | 52° |
| 2026-04-25 14:59 | 55.21332 | 73.62293 | 23511 ft | 422 kts | 50° |
| 2026-04-25 14:59 | 55.23240 | 73.66251 | 24083 ft | 425 kts | 49° |
| 2026-04-25 14:59 | 55.25161 | 73.70185 | 24655 ft | 427 kts | 49° |
| 2026-04-25 15:00 | 55.27099 | 73.74154 | 25211 ft | 430 kts | 49° |
| 2026-04-25 15:00 | 55.29047 | 73.78168 | 25746 ft | 433 kts | 49° |
| 2026-04-25 15:00 | 55.31102 | 73.82066 | 26203 ft | 436 kts | 43° |
| 2026-04-25 15:00 | 55.33375 | 73.85610 | 26710 ft | 438 kts | 38° |
| 2026-04-25 15:01 | 55.35657 | 73.89180 | 27126 ft | 443 kts | 49° |
| 2026-04-25 15:01 | 55.37128 | 73.93866 | 27593 ft | 443 kts | 75° |
| 2026-04-25 15:01 | 55.37402 | 73.99217 | 27964 ft | 438 kts | 102° |
| 2026-04-25 15:01 | 55.36886 | 74.04475 | 28372 ft | 439 kts | 104° |
| 2026-04-25 15:02 | 55.36297 | 74.09684 | 28759 ft | 441 kts | 105° |
| 2026-04-25 15:02 | 55.35661 | 74.15087 | 28886 ft | 452 kts | 105° |
| 2026-04-25 15:02 | 55.35028 | 74.20502 | 28914 ft | 464 kts | 105° |
| 2026-04-25 15:02 | 55.34378 | 74.26122 | 28896 ft | 475 kts | 105° |
| 2026-04-25 15:03 | 55.33056 | 74.37678 | 28863 ft | 485 kts | 104° |
| 2026-04-25 15:03 | 55.31722 | 74.49268 | 28867 ft | 485 kts | 105° |
| 2026-04-25 15:04 | 55.30369 | 74.60808 | 28862 ft | 484 kts | 105° |
| 2026-04-25 15:04 | 55.29003 | 74.72367 | 28861 ft | 483 kts | 105° |
| 2026-04-25 15:05 | 55.27630 | 74.83908 | 28866 ft | 483 kts | 105° |
| 2026-04-25 15:06 | 55.25550 | 75.01193 | 28860 ft | 482 kts | 105° |
| 2026-04-25 15:06 | 55.24150 | 75.12697 | 28864 ft | 482 kts | 105° |
| 2026-04-25 15:07 | 55.22751 | 75.24102 | 28862 ft | 481 kts | 105° |
| 2026-04-25 15:07 | 55.21330 | 75.35589 | 28865 ft | 482 kts | 105° |
| 2026-04-25 15:08 | 55.19904 | 75.47022 | 28869 ft | 481 kts | 105° |
| 2026-04-25 15:08 | 55.18475 | 75.58392 | 28861 ft | 481 kts | 105° |
| 2026-04-25 15:09 | 55.17031 | 75.69843 | 28864 ft | 482 kts | 105° |
| 2026-04-25 15:09 | 55.15017 | 75.87098 | 28865 ft | 482 kts | 104° |
| 2026-04-25 15:10 | 55.13643 | 75.98577 | 28866 ft | 482 kts | 105° |
| 2026-04-25 15:11 | 55.11548 | 76.15774 | 28874 ft | 482 kts | 105° |
| 2026-04-25 15:11 | 55.10153 | 76.27147 | 28874 ft | 482 kts | 105° |
| 2026-04-25 15:12 | 55.08025 | 76.44316 | 28881 ft | 482 kts | 105° |
| 2026-04-25 15:12 | 55.07067 | 76.51981 | 28883 ft | 482 kts | 105° |
| 2026-04-25 15:13 | 55.04425 | 76.72895 | 28891 ft | 482 kts | 105° |
| 2026-04-25 15:14 | 55.02966 | 76.84309 | 28896 ft | 482 kts | 105° |
| 2026-04-25 15:14 | 55.01498 | 76.95713 | 28895 ft | 481 kts | 105° |
| 2026-04-25 15:15 | 55.00030 | 77.07017 | 28904 ft | 481 kts | 106° |
| 2026-04-25 15:15 | 54.98544 | 77.18372 | 28906 ft | 481 kts | 106° |
| 2026-04-25 15:16 | 54.97047 | 77.29729 | 28910 ft | 481 kts | 106° |
| 2026-04-25 15:16 | 54.94779 | 77.46743 | 28913 ft | 480 kts | 106° |
| 2026-04-25 15:17 | 54.92670 | 77.63790 | 28908 ft | 483 kts | 95° |
| 2026-04-25 15:18 | 54.93152 | 77.75403 | 28934 ft | 486 kts | 85° |
| 2026-04-25 15:18 | 54.94352 | 77.92900 | 28932 ft | 485 kts | 84° |
| 2026-04-25 15:19 | 54.94896 | 78.00642 | 28935 ft | 485 kts | 84° |
| 2026-04-25 15:19 | 54.95972 | 78.16189 | 28936 ft | 485 kts | 84° |
| 2026-04-25 15:20 | 54.96767 | 78.27868 | 28941 ft | 485 kts | 84° |
| 2026-04-25 15:20 | 54.97549 | 78.39534 | 28943 ft | 485 kts | 84° |
| 2026-04-25 15:21 | 54.98319 | 78.51203 | 28950 ft | 485 kts | 84° |
| 2026-04-25 15:21 | 54.99078 | 78.62872 | 28951 ft | 485 kts | 84° |
| 2026-04-25 15:22 | 54.99826 | 78.74538 | 28954 ft | 485 kts | 84° |
| 2026-04-25 15:22 | 55.00558 | 78.86139 | 28959 ft | 484 kts | 84° |
| 2026-04-25 15:23 | 55.01284 | 78.97826 | 28964 ft | 484 kts | 85° |
| 2026-04-25 15:23 | 55.01997 | 79.09483 | 28966 ft | 484 kts | 85° |
| 2026-04-25 15:24 | 55.02698 | 79.21139 | 28972 ft | 483 kts | 85° |
| 2026-04-25 15:24 | 55.03156 | 79.28854 | 28972 ft | 483 kts | 85° |
| 2026-04-25 15:25 | 55.04063 | 79.44399 | 28978 ft | 483 kts | 85° |
| 2026-04-25 15:25 | 55.04729 | 79.56040 | 28982 ft | 483 kts | 85° |
| 2026-04-25 15:26 | 55.05385 | 79.67695 | 28987 ft | 482 kts | 85° |
| 2026-04-25 15:26 | 55.06025 | 79.79274 | 28992 ft | 482 kts | 85° |
| 2026-04-25 15:27 | 55.06647 | 79.90921 | 28997 ft | 481 kts | 85° |
| 2026-04-25 15:28 | 55.07540 | 80.08385 | 29000 ft | 481 kts | 85° |
| 2026-04-25 15:28 | 55.08027 | 80.18074 | 29005 ft | 481 kts | 85° |
| 2026-04-25 15:29 | 55.08603 | 80.29721 | 29006 ft | 480 kts | 85° |
| 2026-04-25 15:29 | 55.09161 | 80.41261 | 29010 ft | 480 kts | 86° |
| 2026-04-25 15:30 | 55.09712 | 80.52875 | 29014 ft | 480 kts | 86° |
| 2026-04-25 15:30 | 55.10249 | 80.64410 | 28980 ft | 462 kts | 86° |
| 2026-04-25 15:30 | 55.10499 | 80.69874 | 28962 ft | 440 kts | 86° |
| 2026-04-25 15:31 | 55.10736 | 80.75128 | 28959 ft | 432 kts | 86° |
| 2026-04-25 15:31 | 55.10972 | 80.80394 | 28593 ft | 436 kts | 86° |
| 2026-04-25 15:31 | 55.11206 | 80.85676 | 28255 ft | 437 kts | 86° |
| 2026-04-25 15:31 | 55.11440 | 80.90977 | 27932 ft | 437 kts | 86° |
| 2026-04-25 15:32 | 55.11656 | 80.96248 | 26984 ft | 442 kts | 89° |
| 2026-04-25 15:32 | 55.11732 | 81.01650 | 25799 ft | 447 kts | 91° |
| 2026-04-25 15:32 | 55.11751 | 81.07108 | 24569 ft | 452 kts | 91° |
| 2026-04-25 15:33 | 55.11772 | 81.18034 | 22987 ft | 438 kts | 92° |
| 2026-04-25 15:33 | 55.11784 | 81.23281 | 22439 ft | 425 kts | 92° |
| 2026-04-25 15:33 | 55.11794 | 81.28390 | 21871 ft | 415 kts | 92° |
| 2026-04-25 15:33 | 55.11803 | 81.33371 | 21331 ft | 406 kts | 92° |
| 2026-04-25 15:34 | 55.11810 | 81.38250 | 20797 ft | 398 kts | 92° |
| 2026-04-25 15:34 | 55.11815 | 81.43034 | 20274 ft | 390 kts | 92° |
| 2026-04-25 15:34 | 55.11817 | 81.47730 | 19766 ft | 385 kts | 92° |
| 2026-04-25 15:34 | 55.11818 | 81.50818 | 19431 ft | 383 kts | 92° |
| 2026-04-25 15:35 | 55.11814 | 81.61707 | 18238 ft | 384 kts | 92° |
| 2026-04-25 15:35 | 55.11810 | 81.66358 | 17740 ft | 381 kts | 92° |
| 2026-04-25 15:35 | 55.11806 | 81.70976 | 17233 ft | 380 kts | 92° |
| 2026-04-25 15:36 | 55.11790 | 81.80187 | 16240 ft | 378 kts | 92° |
| 2026-04-25 15:36 | 55.11779 | 81.84712 | 15744 ft | 376 kts | 93° |
| 2026-04-25 15:36 | 55.11766 | 81.89279 | 15244 ft | 375 kts | 93° |
| 2026-04-25 15:37 | 55.11752 | 81.93818 | 14748 ft | 373 kts | 93° |
| 2026-04-25 15:37 | 55.11736 | 81.98350 | 14257 ft | 373 kts | 93° |
| 2026-04-25 15:37 | 55.11717 | 82.02910 | 13751 ft | 376 kts | 93° |
| 2026-04-25 15:37 | 55.11698 | 82.07452 | 13262 ft | 371 kts | 92° |
| 2026-04-25 15:38 | 55.11677 | 82.11934 | 12763 ft | 367 kts | 92° |
| 2026-04-25 15:38 | 55.11655 | 82.16353 | 12289 ft | 361 kts | 92° |
| 2026-04-25 15:38 | 55.11631 | 82.20715 | 11809 ft | 355 kts | 92° |
| 2026-04-25 15:38 | 55.11606 | 82.24986 | 11342 ft | 349 kts | 91° |
| 2026-04-25 15:39 | 55.11580 | 82.29194 | 10886 ft | 343 kts | 91° |
| 2026-04-25 15:39 | 55.11554 | 82.33272 | 10447 ft | 338 kts | 91° |
| 2026-04-25 15:39 | 55.11526 | 82.37347 | 10043 ft | 332 kts | 91° |
| 2026-04-25 15:39 | 55.11498 | 82.41334 | 9646 ft | 325 kts | 90° |
| 2026-04-25 15:40 | 55.11700 | 82.45239 | 9172 ft | 321 kts | 81° |
| 2026-04-25 15:40 | 55.11978 | 82.47824 | 8864 ft | 318 kts | 77° |
| 2026-04-25 15:40 | 55.12614 | 82.52774 | 8300 ft | 312 kts | 77° |
| 2026-04-25 15:40 | 55.13082 | 82.56453 | 7894 ft | 307 kts | 76° |
| 2026-04-25 15:41 | 55.13650 | 82.60021 | 7492 ft | 303 kts | 75° |
| 2026-04-25 15:41 | 55.14235 | 82.63550 | 7101 ft | 299 kts | 75° |
| 2026-04-25 15:41 | 55.14803 | 82.66962 | 7028 ft | 285 kts | 75° |
| 2026-04-25 15:41 | 55.15351 | 82.70278 | 6977 ft | 286 kts | 75° |
| 2026-04-25 15:42 | 55.15836 | 82.73703 | 6223 ft | 290 kts | 86° |
| 2026-04-25 15:42 | 55.15946 | 82.77105 | 6183 ft | 276 kts | 91° |
| 2026-04-25 15:42 | 55.15967 | 82.80448 | 6203 ft | 274 kts | 92° |